createdAt,value
2018-12-16T00:01:04.805Z,-0.12
2018-12-16T00:03:33.693Z,-0.17
2018-12-16T00:06:03.352Z,-0.36
2018-12-16T00:08:30.964Z,-0.41
2018-12-16T00:11:00.139Z,-0.53
2018-12-16T00:13:27.697Z,-0.56
2018-12-16T00:15:55.461Z,-0.62
2018-12-16T00:18:23.331Z,-0.65
2018-12-16T00:20:50.903Z,-0.54
2018-12-16T00:23:18.465Z,-0.60
2018-12-16T00:25:46.188Z,-0.68
2018-12-16T00:28:13.703Z,-0.80
2018-12-16T00:30:41.259Z,-0.71
2018-12-16T00:33:08.843Z,-0.82
2018-12-16T00:35:36.411Z,-0.81
2018-12-16T00:38:03.940Z,-0.75
2018-12-16T00:40:31.484Z,-1.02
2018-12-16T00:42:59.023Z,-0.98
2018-12-16T00:45:26.604Z,-0.94
2018-12-16T00:47:54.131Z,-0.77
2018-12-16T00:50:21.704Z,-0.81
2018-12-16T00:52:49.240Z,-0.83
2018-12-16T00:55:16.783Z,-0.70
2018-12-16T00:57:44.363Z,-0.88
2018-12-16T01:00:13.842Z,-1.07
2018-12-16T01:02:42.475Z,-0.81
2018-12-16T01:05:10.567Z,-0.91
2018-12-16T01:07:38.174Z,-0.94
2018-12-16T01:10:07.807Z,-1.05
2018-12-16T01:12:35.348Z,-0.92
2018-12-16T01:15:02.889Z,-0.84
2018-12-16T01:17:30.411Z,-1.04
2018-12-16T01:19:57.996Z,-0.95
2018-12-16T01:22:25.521Z,-1.04
2018-12-16T01:24:53.076Z,-1.07
2018-12-16T01:27:20.601Z,-1.16
2018-12-16T01:29:48.160Z,-1.07
2018-12-16T01:32:15.690Z,-1.15
2018-12-16T01:34:43.258Z,-1.18
2018-12-16T01:37:10.788Z,-1.25
2018-12-16T01:39:38.380Z,-1.16
2018-12-16T01:42:05.893Z,-1.17
2018-12-16T01:44:33.421Z,-1.32
2018-12-16T01:47:00.983Z,-1.27
2018-12-16T01:49:28.490Z,-1.41
2018-12-16T01:51:56.019Z,-1.37
2018-12-16T01:54:23.642Z,-1.47
2018-12-16T01:56:51.197Z,-1.37
2018-12-16T01:59:18.738Z,-1.36
2018-12-16T02:01:51.941Z,-1.34
2018-12-16T02:04:19.461Z,-1.37
2018-12-16T02:06:47.022Z,-1.46
2018-12-16T02:09:14.551Z,-1.47
2018-12-16T02:11:42.115Z,-1.40
2018-12-16T02:14:09.637Z,-1.36
2018-12-16T02:16:37.190Z,-1.41
2018-12-16T02:19:04.705Z,-1.32
2018-12-16T02:21:32.242Z,-1.38
2018-12-16T02:23:59.780Z,-1.23
2018-12-16T02:26:27.324Z,-1.26
2018-12-16T02:28:54.850Z,-1.17
2018-12-16T02:31:22.427Z,-1.17
2018-12-16T02:33:49.942Z,-1.17
2018-12-16T02:36:17.500Z,-1.17
2018-12-16T02:38:45.047Z,-1.22
2018-12-16T02:41:12.590Z,-1.11
2018-12-16T02:43:40.187Z,-1.07
2018-12-16T02:46:07.746Z,-1.16
2018-12-16T02:48:35.264Z,-1.07
2018-12-16T02:51:02.779Z,-1.05
2018-12-16T02:53:30.328Z,-1.09
2018-12-16T02:55:57.872Z,-0.99
2018-12-16T02:58:25.426Z,-0.97
2018-12-16T03:00:52.961Z,-1.03
2018-12-16T03:03:20.524Z,-1.05
2018-12-16T03:05:48.051Z,-1.00
2018-12-16T03:08:15.617Z,-0.95
2018-12-16T03:10:43.177Z,-0.99
2018-12-16T03:13:10.918Z,-0.89
2018-12-16T03:15:38.450Z,-0.84
2018-12-16T03:18:06.021Z,-0.85
2018-12-16T03:20:33.576Z,-0.83
2018-12-16T03:23:01.133Z,-0.92
2018-12-16T03:25:28.687Z,-0.96
2018-12-16T03:27:56.239Z,-0.88
2018-12-16T03:30:23.828Z,-0.91
2018-12-16T03:32:51.398Z,-0.88
2018-12-16T03:35:19.058Z,-0.95
2018-12-16T03:37:46.706Z,-0.95
2018-12-16T03:40:14.248Z,-0.81
2018-12-16T03:42:41.824Z,-0.77
2018-12-16T03:45:09.352Z,-0.79
2018-12-16T03:47:36.915Z,-0.71
2018-12-16T03:50:04.923Z,-0.84
2018-12-16T03:52:32.502Z,-0.74
2018-12-16T03:55:00.050Z,-0.70
2018-12-16T03:57:27.610Z,-0.89
2018-12-16T03:59:55.153Z,-0.72
2018-12-16T04:02:22.707Z,-0.80
2018-12-16T04:04:50.220Z,-0.81
2018-12-16T04:07:17.775Z,-0.90
2018-12-16T04:09:45.325Z,-0.95
2018-12-16T04:12:12.905Z,-0.77
2018-12-16T04:14:41.393Z,-0.78
2018-12-16T04:17:09.240Z,-0.81
2018-12-16T04:19:36.777Z,-0.76
2018-12-16T04:22:04.355Z,-0.71
2018-12-16T04:24:31.918Z,-0.65
2018-12-16T04:26:59.443Z,-0.77
2018-12-16T04:29:27.009Z,-0.81
2018-12-16T04:31:54.600Z,-0.77
2018-12-16T04:34:22.190Z,-0.78
2018-12-16T04:36:49.722Z,-0.80
2018-12-16T04:39:17.288Z,-0.77
2018-12-16T04:41:44.868Z,-0.81
2018-12-16T04:44:12.451Z,-0.84
2018-12-16T04:46:40.029Z,-0.64
2018-12-16T04:49:07.587Z,-0.83
2018-12-16T04:51:35.124Z,-0.83
2018-12-16T04:54:02.689Z,-0.81
2018-12-16T04:56:30.228Z,-0.78
2018-12-16T04:58:57.815Z,-0.76
2018-12-16T05:01:25.363Z,-0.79
2018-12-16T05:03:52.914Z,-0.79
2018-12-16T05:06:20.437Z,-0.80
2018-12-16T05:08:48.010Z,-0.86
2018-12-16T05:11:15.556Z,-0.83
2018-12-16T05:13:43.126Z,-0.71
2018-12-16T05:16:10.666Z,-0.83
2018-12-16T05:18:38.204Z,-0.72
2018-12-16T05:21:05.750Z,-0.79
2018-12-16T05:23:33.318Z,-0.71
2018-12-16T05:26:00.856Z,-0.65
2018-12-16T05:28:28.442Z,-0.68
2018-12-16T05:30:55.974Z,-0.73
2018-12-16T05:33:23.555Z,-0.81
2018-12-16T05:35:51.084Z,-0.80
2018-12-16T05:38:18.641Z,-0.79
2018-12-16T05:40:46.164Z,-0.86
2018-12-16T05:43:13.733Z,-0.80
2018-12-16T05:45:41.260Z,-0.80
2018-12-16T05:48:08.825Z,-0.76
2018-12-16T05:50:36.356Z,-0.87
2018-12-16T05:53:03.995Z,-0.83
2018-12-16T05:55:31.527Z,-0.78
2018-12-16T05:57:59.094Z,-0.75
2018-12-16T06:00:26.656Z,-0.68
2018-12-16T06:02:54.193Z,-0.74
2018-12-16T06:05:21.750Z,-0.81
2018-12-16T06:07:49.277Z,-0.67
2018-12-16T06:10:16.845Z,-0.75
2018-12-16T06:12:44.353Z,-0.68
2018-12-16T06:15:11.915Z,-0.66
2018-12-16T06:17:39.456Z,-0.57
2018-12-16T06:20:07.114Z,-0.59
2018-12-16T06:22:34.669Z,-0.64
2018-12-16T06:25:02.216Z,-0.60
2018-12-16T06:27:29.747Z,-0.78
2018-12-16T06:29:57.788Z,-0.71
2018-12-16T06:32:25.325Z,-0.76
2018-12-16T06:34:52.875Z,-0.63
2018-12-16T06:37:20.778Z,-0.63
2018-12-16T06:39:48.345Z,-0.78
2018-12-16T06:42:15.906Z,-0.69
2018-12-16T06:44:43.470Z,-0.75
2018-12-16T06:47:11.102Z,-0.69
2018-12-16T06:49:38.653Z,-0.77
2018-12-16T06:52:06.177Z,-0.69
2018-12-16T06:54:33.782Z,-0.77
2018-12-16T06:57:01.355Z,-0.69
2018-12-16T06:59:28.913Z,-0.67
2018-12-16T07:01:56.444Z,-0.70
2018-12-16T07:04:24.009Z,-0.66
2018-12-16T07:06:53.163Z,-0.63
2018-12-16T07:09:20.849Z,-0.54
2018-12-16T07:11:48.376Z,-0.57
2018-12-16T07:14:15.937Z,-0.63
2018-12-16T07:16:43.494Z,-0.54
2018-12-16T07:19:11.047Z,-0.56
2018-12-16T07:21:38.636Z,-0.62
2018-12-16T07:24:09.214Z,-0.69
2018-12-16T07:26:35.762Z,-0.59
2018-12-16T07:29:03.324Z,-0.57
2018-12-16T07:31:30.882Z,-0.66
2018-12-16T07:33:58.587Z,-0.75
2018-12-16T07:36:26.122Z,-0.67
2018-12-16T07:38:53.664Z,-0.63
2018-12-16T07:41:21.263Z,-0.57
2018-12-16T07:43:48.795Z,-0.53
2018-12-16T07:46:16.385Z,-0.54
2018-12-16T07:48:44.097Z,-0.56
2018-12-16T07:51:11.637Z,-0.61
2018-12-16T07:53:39.158Z,-0.59
2018-12-16T07:56:06.713Z,-0.49
2018-12-16T07:58:34.219Z,-0.53
2018-12-16T08:01:01.835Z,-0.52
2018-12-16T08:03:29.407Z,-0.40
2018-12-16T08:05:56.967Z,-0.55
2018-12-16T08:08:24.478Z,-0.45
2018-12-16T08:10:52.055Z,-0.49
2018-12-16T08:13:19.628Z,-0.40
2018-12-16T08:15:47.183Z,-0.37
2018-12-16T08:18:14.875Z,-0.35
2018-12-16T08:20:42.433Z,-0.32
2018-12-16T08:23:09.950Z,-0.41
2018-12-16T08:25:37.492Z,-0.38
2018-12-16T08:28:05.526Z,-0.41
2018-12-16T08:30:33.066Z,-0.43
2018-12-16T08:33:00.612Z,-0.35
2018-12-16T08:35:28.165Z,-0.28
2018-12-16T08:37:55.690Z,-0.20
2018-12-16T08:40:23.235Z,-0.27
2018-12-16T08:42:50.781Z,-0.18
2018-12-16T08:45:18.333Z,-0.31
2018-12-16T08:47:45.855Z,-0.36
2018-12-16T08:50:13.414Z,-0.30
2018-12-16T08:52:41.628Z,-0.21
2018-12-16T08:55:09.239Z,-0.03
2018-12-16T08:57:36.759Z,-0.11
2018-12-16T09:00:05.093Z,-0.17
2018-12-16T09:02:32.630Z,-0.20
2018-12-16T09:05:00.236Z,-0.09
2018-12-16T09:07:27.739Z,0.00
2018-12-16T09:09:55.292Z,0.05
2018-12-16T09:12:22.815Z,0.00
2018-12-16T09:14:50.369Z,0.13
2018-12-16T09:17:17.978Z,-0.03
2018-12-16T09:19:45.578Z,0.02
2018-12-16T09:22:13.119Z,0.15
2018-12-16T09:24:40.643Z,0.14
2018-12-16T09:27:08.183Z,0.21
2018-12-16T09:29:35.720Z,0.13
2018-12-16T09:32:03.252Z,0.14
2018-12-16T09:34:30.763Z,0.11
2018-12-16T09:36:58.352Z,0.26
2018-12-16T09:39:25.885Z,0.45
2018-12-16T09:41:53.428Z,0.25
2018-12-16T09:44:20.942Z,0.25
2018-12-16T09:46:48.504Z,0.07
2018-12-16T09:49:16.043Z,0.08
2018-12-16T09:51:43.681Z,0.23
2018-12-16T09:54:11.387Z,0.19
2018-12-16T09:56:38.954Z,0.27
2018-12-16T09:59:06.507Z,0.47
2018-12-16T10:01:34.120Z,0.51
2018-12-16T10:04:01.635Z,0.62
2018-12-16T10:06:29.206Z,0.73
2018-12-16T10:08:56.728Z,0.64
2018-12-16T10:11:24.288Z,0.66
2018-12-16T10:13:51.794Z,0.63
2018-12-16T10:16:19.352Z,0.52
2018-12-16T10:18:46.876Z,0.44
2018-12-16T10:21:14.420Z,0.57
2018-12-16T10:23:41.969Z,0.48
2018-12-16T10:26:09.518Z,0.52
2018-12-16T10:28:37.041Z,0.64
2018-12-16T10:31:04.588Z,0.54
2018-12-16T10:33:32.099Z,0.66
2018-12-16T10:35:59.667Z,0.62
2018-12-16T10:38:27.200Z,0.64
2018-12-16T10:40:54.746Z,0.63
2018-12-16T10:43:22.266Z,0.63
2018-12-16T10:45:49.829Z,0.52
2018-12-16T10:48:17.345Z,0.72
2018-12-16T10:50:44.898Z,0.81
2018-12-16T10:53:12.426Z,0.85
2018-12-16T10:55:39.948Z,0.74
2018-12-16T10:58:07.512Z,0.66
2018-12-16T11:00:40.756Z,0.73
2018-12-16T11:03:08.423Z,0.78
2018-12-16T11:05:36.225Z,0.81
2018-12-16T11:08:03.794Z,0.97
2018-12-16T11:10:31.315Z,0.93
2018-12-16T11:12:59.250Z,1.04
2018-12-16T11:15:26.768Z,1.03
2018-12-16T11:17:54.339Z,0.84
2018-12-16T11:20:21.850Z,0.92
2018-12-16T11:22:49.399Z,1.00
2018-12-16T11:25:17.014Z,0.95
2018-12-16T11:27:44.567Z,1.09
2018-12-16T11:30:12.177Z,1.01
2018-12-16T11:32:40.227Z,1.15
2018-12-16T11:35:07.870Z,1.19
2018-12-16T11:37:35.556Z,1.18
2018-12-16T11:40:18.370Z,1.08
2018-12-16T11:42:45.913Z,1.18
2018-12-16T11:45:13.638Z,1.23
2018-12-16T11:47:41.901Z,1.18
2018-12-16T11:50:09.490Z,1.16
2018-12-16T11:52:37.035Z,1.17
2018-12-16T11:55:04.649Z,1.29
2018-12-16T11:57:32.241Z,1.38
2018-12-16T11:59:59.759Z,1.37
2018-12-16T12:02:32.802Z,1.24
2018-12-16T12:04:57.011Z,1.31
2018-12-16T12:07:24.568Z,1.25
2018-12-16T12:09:52.095Z,1.27
2018-12-16T12:12:19.646Z,1.23
2018-12-16T12:14:47.178Z,1.25
2018-12-16T12:17:14.728Z,1.33
2018-12-16T12:19:42.245Z,1.21
2018-12-16T12:22:10.327Z,1.35
2018-12-16T12:24:37.848Z,1.30
2018-12-16T12:27:05.390Z,1.27
2018-12-16T12:29:32.924Z,1.17
2018-12-16T12:32:00.925Z,1.34
2018-12-16T12:34:28.511Z,1.39
2018-12-16T12:36:56.083Z,1.37
2018-12-16T12:39:23.599Z,1.49
2018-12-16T12:41:51.138Z,1.52
2018-12-16T12:44:18.647Z,1.45
2018-12-16T12:46:46.231Z,1.51
2018-12-16T12:49:14.428Z,1.51
2018-12-16T12:51:41.991Z,1.63
2018-12-16T12:54:09.535Z,1.64
2018-12-16T12:56:38.251Z,1.62
2018-12-16T12:59:05.860Z,1.62
2018-12-16T13:01:33.378Z,1.67
2018-12-16T13:04:00.941Z,1.65
2018-12-16T13:06:28.477Z,1.61
2018-12-16T13:08:56.063Z,1.64
2018-12-16T13:11:23.584Z,1.83
2018-12-16T13:13:51.150Z,1.73
2018-12-16T13:16:18.682Z,1.74
2018-12-16T13:18:46.264Z,1.70
2018-12-16T13:21:13.797Z,1.66
2018-12-16T13:23:41.351Z,1.54
2018-12-16T13:26:09.055Z,1.50
2018-12-16T13:28:36.598Z,1.44
2018-12-16T13:31:04.150Z,1.55
2018-12-16T13:33:31.710Z,1.53
2018-12-16T13:35:59.252Z,1.53
2018-12-16T13:38:26.823Z,1.47
2018-12-16T13:40:54.711Z,1.55
2018-12-16T13:43:22.820Z,1.67
2018-12-16T13:45:50.371Z,1.61
2018-12-16T13:48:17.959Z,1.53
2018-12-16T13:50:45.485Z,1.40
2018-12-16T13:53:13.898Z,1.43
2018-12-16T13:55:41.461Z,1.44
2018-12-16T13:58:09.052Z,1.41
2018-12-16T14:00:36.621Z,1.29
2018-12-16T14:03:04.224Z,1.41
2018-12-16T14:05:32.138Z,1.43
2018-12-16T14:07:59.728Z,1.55
2018-12-16T14:10:28.285Z,1.47
2018-12-16T14:12:55.838Z,1.67
2018-12-16T14:15:23.403Z,1.56
2018-12-16T14:17:51.062Z,1.61
2018-12-16T14:20:18.647Z,1.58
2018-12-16T14:22:46.214Z,1.52
2018-12-16T14:25:13.915Z,1.47
2018-12-16T14:27:41.541Z,1.43
2018-12-16T14:30:10.333Z,1.57
2018-12-16T14:32:37.906Z,1.57
2018-12-16T14:35:07.300Z,1.40
2018-12-16T14:37:34.932Z,1.52
2018-12-16T14:40:03.898Z,1.46
2018-12-16T14:42:33.116Z,1.43
2018-12-16T14:45:02.141Z,1.54
2018-12-16T14:47:29.879Z,1.49
2018-12-16T14:49:57.758Z,1.53
2018-12-16T14:52:29.097Z,1.44
2018-12-16T14:54:58.086Z,1.50
2018-12-16T14:57:27.738Z,1.47
2018-12-16T14:59:55.579Z,1.45
2018-12-16T15:02:27.122Z,1.44
2018-12-16T15:04:54.901Z,1.38
2018-12-16T15:07:28.840Z,1.43
2018-12-16T15:09:57.036Z,1.43
2018-12-16T15:12:24.957Z,1.46
2018-12-16T15:14:53.189Z,1.44
2018-12-16T15:17:20.933Z,1.41
2018-12-16T15:19:48.716Z,1.36
2018-12-16T15:22:16.303Z,1.39
2018-12-16T15:24:44.417Z,1.34
2018-12-16T15:27:13.409Z,1.34
2018-12-16T15:29:41.653Z,1.37
2018-12-16T15:32:09.371Z,1.24
2018-12-16T15:34:37.200Z,1.33
2018-12-16T15:37:07.210Z,1.40
2018-12-16T15:39:35.423Z,1.33
2018-12-16T15:42:04.906Z,1.34
2018-12-16T15:44:33.652Z,1.35
2018-12-16T15:47:02.512Z,1.36
2018-12-16T15:49:30.111Z,1.38
2018-12-16T15:51:57.864Z,1.35
2018-12-16T15:54:25.938Z,1.33
2018-12-16T15:56:53.521Z,1.33
2018-12-16T15:59:21.656Z,1.26
2018-12-16T16:01:49.948Z,1.30
2018-12-16T16:04:17.777Z,1.21
2018-12-16T16:06:45.340Z,1.18
2018-12-16T16:09:12.926Z,1.33
2018-12-16T16:11:40.832Z,1.31
2018-12-16T16:14:08.770Z,1.27
2018-12-16T16:16:37.415Z,1.26
2018-12-16T16:19:04.936Z,1.23
2018-12-16T16:21:32.499Z,1.20
2018-12-16T16:24:00.025Z,1.23
2018-12-16T16:26:27.608Z,1.30
2018-12-16T16:28:55.262Z,1.37
2018-12-16T16:31:22.927Z,1.31
2018-12-16T16:33:52.654Z,1.44
2018-12-16T16:36:20.196Z,1.40
2018-12-16T16:38:47.795Z,1.31
2018-12-16T16:41:15.341Z,1.28
2018-12-16T16:43:43.073Z,1.24
2018-12-16T16:46:10.590Z,1.30
2018-12-16T16:48:38.154Z,1.23
2018-12-16T16:51:05.831Z,1.30
2018-12-16T16:53:36.529Z,1.29
2018-12-16T16:56:04.227Z,1.32
2018-12-16T16:58:31.786Z,1.37
2018-12-16T17:00:59.340Z,1.33
2018-12-16T17:03:26.906Z,1.39
2018-12-16T17:05:54.435Z,1.36
2018-12-16T17:08:22.004Z,1.36
2018-12-16T17:10:49.571Z,1.35
2018-12-16T17:13:17.172Z,1.42
2018-12-16T17:15:44.726Z,1.38
2018-12-16T17:18:12.298Z,1.38
2018-12-16T17:20:39.862Z,1.36
2018-12-16T17:23:07.427Z,1.50
2018-12-16T17:25:34.967Z,1.42
2018-12-16T17:28:02.541Z,1.54
2018-12-16T17:30:30.145Z,1.41
2018-12-16T17:32:57.729Z,1.45
2018-12-16T17:35:25.251Z,1.43
2018-12-16T17:37:52.810Z,1.47
2018-12-16T17:40:20.327Z,1.56
2018-12-16T17:42:47.892Z,1.48
2018-12-16T17:45:15.425Z,1.46
2018-12-16T17:47:42.948Z,1.41
2018-12-16T17:50:10.589Z,1.38
2018-12-16T17:52:38.116Z,1.43
2018-12-16T17:55:06.064Z,1.46
2018-12-16T17:57:33.572Z,1.50
2018-12-16T18:00:01.123Z,1.35
2018-12-16T18:02:28.654Z,1.28
2018-12-16T18:04:56.211Z,1.34
2018-12-16T18:07:23.739Z,1.38
2018-12-16T18:09:51.285Z,1.47
2018-12-16T18:12:18.863Z,1.42
2018-12-16T18:14:46.453Z,1.45
2018-12-16T18:17:13.990Z,1.42
2018-12-16T18:19:41.564Z,1.50
2018-12-16T18:22:13.986Z,1.59
2018-12-16T18:24:38.677Z,1.52
2018-12-16T18:27:06.199Z,1.53
2018-12-16T18:29:33.755Z,1.66
2018-12-16T18:32:01.270Z,1.45
2018-12-16T18:34:28.825Z,1.47
2018-12-16T18:36:56.360Z,1.50
2018-12-16T18:39:24.002Z,1.55
2018-12-16T18:41:51.830Z,1.55
2018-12-16T18:44:19.386Z,1.48
2018-12-16T18:46:46.935Z,1.44
2018-12-16T18:49:14.496Z,1.47
2018-12-16T18:51:42.018Z,1.46
2018-12-16T18:54:09.583Z,1.39
2018-12-16T18:56:37.098Z,1.51
2018-12-16T18:59:04.712Z,1.53
2018-12-16T19:01:32.232Z,1.46
2018-12-16T19:03:59.794Z,1.45
2018-12-16T19:06:27.314Z,1.45
2018-12-16T19:08:54.857Z,1.50
2018-12-16T19:11:22.552Z,1.47
2018-12-16T19:13:50.085Z,1.53
2018-12-16T19:16:17.709Z,1.58
2018-12-16T19:18:45.452Z,1.47
2018-12-16T19:21:13.086Z,1.44
2018-12-16T19:23:40.606Z,1.49
2018-12-16T19:26:08.382Z,1.51
2018-12-16T19:28:37.059Z,1.51
2018-12-16T19:31:04.669Z,1.50
2018-12-16T19:33:32.229Z,1.46
2018-12-16T19:35:59.798Z,1.45
2018-12-16T19:38:27.377Z,1.37
2018-12-16T19:40:54.984Z,1.45
2018-12-16T19:43:22.530Z,1.38
2018-12-16T19:45:56.517Z,1.45
2018-12-16T19:48:24.209Z,1.55
2018-12-16T19:50:51.805Z,1.52
2018-12-16T19:53:19.353Z,1.53
2018-12-16T19:55:46.965Z,1.53
2018-12-16T19:58:14.485Z,1.54
2018-12-16T20:00:43.655Z,1.45
2018-12-16T20:03:11.267Z,1.51
2018-12-16T20:05:41.374Z,1.51
2018-12-16T20:08:08.934Z,1.48
2018-12-16T20:10:36.500Z,1.47
2018-12-16T20:13:04.023Z,1.40
2018-12-16T20:15:31.649Z,1.43
2018-12-16T20:17:59.207Z,1.41
2018-12-16T20:20:26.781Z,1.39
2018-12-16T20:22:54.331Z,1.44
2018-12-16T20:25:22.392Z,1.45
2018-12-16T20:27:50.108Z,1.44
2018-12-16T20:30:17.669Z,1.50
2018-12-16T20:32:45.200Z,1.56
2018-12-16T20:35:13.144Z,1.55
2018-12-16T20:37:40.956Z,1.61
2018-12-16T20:40:08.508Z,1.64
2018-12-16T20:42:36.005Z,1.68
2018-12-16T20:45:04.461Z,1.73
2018-12-16T20:47:31.989Z,1.65
2018-12-16T20:49:59.538Z,1.66
2018-12-16T20:52:27.048Z,1.68
2018-12-16T20:54:54.593Z,1.70
2018-12-16T20:57:22.119Z,1.70
2018-12-16T20:59:50.778Z,1.72
2018-12-16T21:02:19.285Z,1.70
2018-12-16T21:04:46.974Z,1.70
2018-12-16T21:07:14.694Z,1.68
2018-12-16T21:09:42.689Z,1.70
2018-12-16T21:15:17.003Z,1.59
2018-12-16T21:17:50.347Z,1.66
2018-12-16T21:20:18.952Z,1.61
2018-12-16T21:22:47.612Z,1.60
2018-12-16T21:25:15.179Z,1.64
2018-12-16T21:27:42.696Z,1.65
2018-12-16T21:30:10.616Z,1.74
2018-12-16T21:32:38.328Z,1.72
2018-12-16T21:35:06.366Z,1.78
2018-12-16T21:37:34.033Z,1.60
2018-12-16T21:40:01.567Z,1.66
2018-12-16T21:42:29.586Z,1.72
2018-12-16T21:44:57.137Z,1.69
2018-12-16T21:47:24.887Z,1.62
2018-12-16T21:49:52.719Z,1.60
2018-12-16T21:52:21.037Z,1.72
2018-12-16T21:54:48.749Z,1.73
2018-12-16T21:57:16.536Z,1.77
2018-12-16T21:59:44.833Z,1.79
2018-12-16T22:02:12.592Z,1.78
2018-12-16T22:04:40.284Z,1.75
2018-12-16T22:07:08.342Z,1.70
2018-12-16T22:09:36.228Z,1.73
2018-12-16T22:12:03.938Z,1.80
2018-12-16T22:14:31.767Z,1.76
2018-12-16T22:16:59.997Z,1.79
2018-12-16T22:19:27.812Z,1.74
2018-12-16T22:21:55.655Z,1.77
2018-12-16T22:24:23.181Z,1.78
2018-12-16T22:26:50.805Z,1.78
2018-12-16T22:29:18.335Z,1.69
2018-12-16T22:31:45.896Z,1.75
2018-12-16T22:34:13.412Z,1.65
2018-12-16T22:36:40.978Z,1.68
2018-12-16T22:39:08.490Z,1.71
2018-12-16T22:41:36.012Z,1.75
2018-12-16T22:44:03.649Z,1.73
2018-12-16T22:46:31.470Z,1.68
2018-12-16T22:48:59.005Z,1.78
2018-12-16T22:51:26.534Z,1.80
2018-12-16T22:53:54.089Z,1.77
2018-12-16T22:56:21.633Z,1.72
2018-12-16T22:58:54.324Z,1.71
2018-12-16T23:01:19.206Z,1.64
2018-12-16T23:03:47.024Z,1.74
2018-12-16T23:06:15.134Z,1.73
2018-12-16T23:08:42.835Z,1.72
2018-12-16T23:11:10.920Z,1.75
2018-12-16T23:13:38.755Z,1.75
2018-12-16T23:16:07.174Z,1.67
2018-12-16T23:18:34.879Z,1.71
2018-12-16T23:21:02.449Z,1.75
2018-12-16T23:23:32.147Z,1.67
2018-12-16T23:26:00.863Z,1.68
2018-12-16T23:28:30.734Z,1.68
2018-12-16T23:30:59.203Z,1.70
2018-12-16T23:33:28.889Z,1.63
2018-12-16T23:35:57.815Z,1.68
2018-12-16T23:38:25.883Z,1.56
2018-12-16T23:40:55.797Z,1.64
2018-12-16T23:43:24.424Z,1.68
2018-12-16T23:45:52.256Z,1.67
2018-12-16T23:48:20.004Z,1.73
2018-12-16T23:50:47.601Z,1.82
2018-12-16T23:53:16.213Z,1.82
2018-12-16T23:55:44.152Z,1.68
2018-12-16T23:58:12.124Z,1.72
